sensor_id;sensor_type;location;lat;lon;timestamp;pressure;altitude;pressure_sealevel;temperature;humidity
30302;BME280;17111;52.130;5.028;2023-05-23T00:02:02;102059.63;;;22.57;49.63
30302;BME280;17111;52.130;5.028;2023-05-23T00:04:34;102071.47;;;22.56;49.91
30302;BME280;17111;52.130;5.028;2023-05-23T00:07:02;102075.16;;;22.55;49.55
30302;BME280;17111;52.130;5.028;2023-05-23T00:09:29;102075.16;;;22.55;49.73
30302;BME280;17111;52.130;5.028;2023-05-23T00:11:56;102067.06;;;22.55;49.92
30302;BME280;17111;52.130;5.028;2023-05-23T00:14:23;102068.88;;;22.55;49.70
30302;BME280;17111;52.130;5.028;2023-05-23T00:16:49;102077.88;;;22.55;50.01
30302;BME280;17111;52.130;5.028;2023-05-23T00:19:17;102081.56;;;22.54;49.90
30302;BME280;17111;52.130;5.028;2023-05-23T00:21:45;102083.41;;;22.54;49.90
30302;BME280;17111;52.130;5.028;2023-05-23T00:24:16;102082.56;;;22.53;49.54
30302;BME280;17111;52.130;5.028;2023-05-23T00:26:45;102079.69;;;22.55;49.90
30302;BME280;17111;52.130;5.028;2023-05-23T00:29:12;102085.28;;;22.53;49.79
30302;BME280;17111;52.130;5.028;2023-05-23T00:31:42;102082.72;;;22.52;49.77
30302;BME280;17111;52.130;5.028;2023-05-23T00:34:13;102088.81;;;22.54;49.47
30302;BME280;17111;52.130;5.028;2023-05-23T00:36:40;102086.28;;;22.52;50.12
30302;BME280;17111;52.130;5.028;2023-05-23T00:39:09;102091.69;;;22.52;49.65
30302;BME280;17111;52.130;5.028;2023-05-23T00:41:45;102093.53;;;22.52;49.65
30302;BME280;17111;52.130;5.028;2023-05-23T00:44:15;102096.25;;;22.52;49.60
30302;BME280;17111;52.130;5.028;2023-05-23T00:46:44;102091.81;;;22.51;49.70
30302;BME280;17111;52.130;5.028;2023-05-23T00:49:13;102095.53;;;22.50;49.54
30302;BME280;17111;52.130;5.028;2023-05-23T00:51:40;102103.63;;;22.50;49.74
30302;BME280;17111;52.130;5.028;2023-05-23T00:54:08;102093.00;;;22.48;49.47
30302;BME280;17111;52.130;5.028;2023-05-23T00:56:35;102098.53;;;22.47;50.00
30302;BME280;17111;52.130;5.028;2023-05-23T00:59:04;102099.38;;;22.47;49.78
30302;BME280;17111;52.130;5.028;2023-05-23T01:01:31;102100.38;;;22.46;49.99
30302;BME280;17111;52.130;5.028;2023-05-23T01:03:58;102098.69;;;22.45;49.64
30302;BME280;17111;52.130;5.028;2023-05-23T01:06:25;102092.44;;;22.45;49.70
30302;BME280;17111;52.130;5.028;2023-05-23T01:08:55;102091.59;;;22.44;49.92
30302;BME280;17111;52.130;5.028;2023-05-23T01:11:29;102105.25;;;22.42;49.73
30302;BME280;17111;52.130;5.028;2023-05-23T01:14:21;102100.84;;;22.41;49.63
30302;BME280;17111;52.130;5.028;2023-05-23T01:16:59;102113.34;;;22.42;49.54
30302;BME280;17111;52.130;5.028;2023-05-23T01:22:11;102100.00;;;22.41;49.84
30302;BME280;17111;52.130;5.028;2023-05-23T01:25:06;102110.09;;;22.39;50.11
30302;BME280;17111;52.130;5.028;2023-05-23T01:27:50;102110.09;;;22.39;49.78
30302;BME280;17111;52.130;5.028;2023-05-23T01:30:19;102110.97;;;22.39;49.73
30302;BME280;17111;52.130;5.028;2023-05-23T01:32:47;102099.28;;;22.39;49.90
30302;BME280;17111;52.130;5.028;2023-05-23T01:35:24;102117.50;;;22.37;49.91
30302;BME280;17111;52.130;5.028;2023-05-23T01:37:54;102113.13;;;22.36;49.65
30302;BME280;17111;52.130;5.028;2023-05-23T01:40:22;102110.41;;;22.36;49.69
30302;BME280;17111;52.130;5.028;2023-05-23T01:42:49;102112.28;;;22.35;49.68
30302;BME280;17111;52.130;5.028;2023-05-23T01:45:17;102118.66;;;22.34;49.90
30302;BME280;17111;52.130;5.028;2023-05-23T01:47:45;102115.09;;;22.34;49.87
30302;BME280;17111;52.130;5.028;2023-05-23T01:50:15;102122.38;;;22.33;49.79
30302;BME280;17111;52.130;5.028;2023-05-23T01:52:42;102114.44;;;22.32;49.50
30302;BME280;17111;52.130;5.028;2023-05-23T01:55:09;102118.81;;;22.33;50.06
30302;BME280;17111;52.130;5.028;2023-05-23T01:57:37;102122.53;;;22.32;50.03
30302;BME280;17111;52.130;5.028;2023-05-23T02:00:05;102118.97;;;22.31;49.98
30302;BME280;17111;52.130;5.028;2023-05-23T02:02:33;102119.97;;;22.30;49.67
30302;BME280;17111;52.130;5.028;2023-05-23T02:04:59;102117.25;;;22.30;50.13
30302;BME280;17111;52.130;5.028;2023-05-23T02:07:26;102121.81;;;22.30;49.62
30302;BME280;17111;52.130;5.028;2023-05-23T02:09:54;102112.03;;;22.29;49.55
30302;BME280;17111;52.130;5.028;2023-05-23T02:12:21;102109.31;;;22.29;49.99
30302;BME280;17111;52.130;5.028;2023-05-23T02:14:49;102109.31;;;22.29;49.50
30302;BME280;17111;52.130;5.028;2023-05-23T02:17:17;102108.47;;;22.28;49.67
30302;BME280;17111;52.130;5.028;2023-05-23T02:19:44;102108.59;;;22.27;49.67
30302;BME280;17111;52.130;5.028;2023-05-23T02:22:10;102117.59;;;22.27;49.87
30302;BME280;17111;52.130;5.028;2023-05-23T02:24:37;102116.72;;;22.27;49.69
30302;BME280;17111;52.130;5.028;2023-05-23T02:27:04;102116.72;;;22.27;49.76
30302;BME280;17111;52.130;5.028;2023-05-23T02:29:31;102129.38;;;22.26;49.91
30302;BME280;17111;52.130;5.028;2023-05-23T02:31:57;102133.06;;;22.25;49.59
30302;BME280;17111;52.130;5.028;2023-05-23T02:34:24;102137.63;;;22.25;49.50
30302;BME280;17111;52.130;5.028;2023-05-23T02:36:51;102132.22;;;22.25;49.82
30302;BME280;17111;52.130;5.028;2023-05-23T02:39:18;102143.03;;;22.25;49.85
30302;BME280;17111;52.130;5.028;2023-05-23T02:41:44;102134.09;;;22.24;50.00
30302;BME280;17111;52.130;5.028;2023-05-23T02:44:11;102137.78;;;22.23;49.86
30302;BME280;17111;52.130;5.028;2023-05-23T02:46:37;102139.63;;;22.23;49.76
30302;BME280;17111;52.130;5.028;2023-05-23T02:49:04;102142.31;;;22.23;49.79
30302;BME280;17111;52.130;5.028;2023-05-23T02:51:31;102146.03;;;22.22;49.80
30302;BME280;17111;52.130;5.028;2023-05-23T02:53:57;102157.69;;;22.22;49.88
30302;BME280;17111;52.130;5.028;2023-05-23T02:56:24;102147.88;;;22.21;49.84
30302;BME280;17111;52.130;5.028;2023-05-23T02:58:52;102149.88;;;22.19;49.82
30302;BME280;17111;52.130;5.028;2023-05-23T03:01:18;102152.56;;;22.19;49.84
30302;BME280;17111;52.130;5.028;2023-05-23T03:03:45;102151.72;;;22.18;49.69
30302;BME280;17111;52.130;5.028;2023-05-23T03:06:12;102158.13;;;22.17;49.79
30302;BME280;17111;52.130;5.028;2023-05-23T03:08:40;102155.44;;;22.17;49.83
30302;BME280;17111;52.130;5.028;2023-05-23T03:11:07;102159.13;;;22.16;50.08
30302;BME280;17111;52.130;5.028;2023-05-23T03:13:34;102152.88;;;22.16;49.95
30302;BME280;17111;52.130;5.028;2023-05-23T03:16:01;102151.03;;;22.16;49.67
30302;BME280;17111;52.130;5.028;2023-05-23T03:18:28;102148.47;;;22.15;49.87
30302;BME280;17111;52.130;5.028;2023-05-23T03:20:54;102153.00;;;22.14;49.80
30302;BME280;17111;52.130;5.028;2023-05-23T03:23:21;102150.31;;;22.14;49.75
30302;BME280;17111;52.130;5.028;2023-05-23T03:25:48;102155.72;;;22.14;50.05
30302;BME280;17111;52.130;5.028;2023-05-23T03:28:14;102166.69;;;22.13;49.83
30302;BME280;17111;52.130;5.028;2023-05-23T03:30:41;102164.94;;;22.12;50.01
30302;BME280;17111;52.130;5.028;2023-05-23T03:33:07;102162.25;;;22.12;49.93
30302;BME280;17111;52.130;5.028;2023-05-23T03:35:34;102170.34;;;22.12;50.19
30302;BME280;17111;52.130;5.028;2023-05-23T03:38:01;102167.78;;;22.10;49.71
30302;BME280;17111;52.130;5.028;2023-05-23T03:40:27;102161.53;;;22.10;49.89
30302;BME280;17111;52.130;5.028;2023-05-23T03:43:12;102167.09;;;22.08;49.69
30302;BME280;17111;52.130;5.028;2023-05-23T03:45:39;102167.94;;;22.09;50.15
30302;BME280;17111;52.130;5.028;2023-05-23T03:48:06;102175.19;;;22.08;49.81
30302;BME280;17111;52.130;5.028;2023-05-23T03:50:33;102183.28;;;22.08;49.85
30302;BME280;17111;52.130;5.028;2023-05-23T03:52:59;102184.31;;;22.07;50.42
30302;BME280;17111;52.130;5.028;2023-05-23T03:55:26;102185.28;;;22.06;50.00
30302;BME280;17111;52.130;5.028;2023-05-23T03:57:53;102188.13;;;22.05;49.79
30302;BME280;17111;52.130;5.028;2023-05-23T04:00:19;102190.00;;;22.04;49.99
30302;BME280;17111;52.130;5.028;2023-05-23T04:02:46;102191.00;;;22.03;49.93
30302;BME280;17111;52.130;5.028;2023-05-23T04:05:13;102196.25;;;22.05;50.16
30302;BME280;17111;52.130;5.028;2023-05-23T04:07:39;102198.22;;;22.03;50.13
30302;BME280;17111;52.130;5.028;2023-05-23T04:10:07;102202.78;;;22.02;50.11
30302;BME280;17111;52.130;5.028;2023-05-23T04:12:35;102205.63;;;22.01;50.00
30302;BME280;17111;52.130;5.028;2023-05-23T04:15:02;102212.88;;;22.00;50.14
30302;BME280;17111;52.130;5.028;2023-05-23T04:17:29;102212.03;;;22.00;50.18
30302;BME280;17111;52.130;5.028;2023-05-23T04:19:56;102220.25;;;21.98;50.34
30302;BME280;17111;52.130;5.028;2023-05-23T04:22:23;102220.25;;;21.98;49.99
30302;BME280;17111;52.130;5.028;2023-05-23T04:24:50;102226.66;;;21.97;50.03
30302;BME280;17111;52.130;5.028;2023-05-23T04:27:16;102228.69;;;21.95;49.90
30302;BME280;17111;52.130;5.028;2023-05-23T04:29:43;102225.97;;;21.95;50.11
30302;BME280;17111;52.130;5.028;2023-05-23T04:32:12;102231.38;;;21.95;50.01
30302;BME280;17111;52.130;5.028;2023-05-23T04:34:40;102222.56;;;21.93;49.95
30302;BME280;17111;52.130;5.028;2023-05-23T04:37:06;102234.22;;;21.93;49.81
30302;BME280;17111;52.130;5.028;2023-05-23T04:39:34;102227.09;;;21.92;49.94
30302;BME280;17111;52.130;5.028;2023-05-23T04:42:01;102223.56;;;21.92;50.12
30302;BME280;17111;52.130;5.028;2023-05-23T04:44:27;102230.81;;;21.91;50.22
30302;BME280;17111;52.130;5.028;2023-05-23T04:46:55;102233.50;;;21.91;50.25
30302;BME280;17111;52.130;5.028;2023-05-23T04:49:22;102241.63;;;21.91;50.39
30302;BME280;17111;52.130;5.028;2023-05-23T04:51:49;102249.72;;;21.91;50.71
30302;BME280;17111;52.130;5.028;2023-05-23T04:54:16;102246.16;;;21.91;50.75
30302;BME280;17111;52.130;5.028;2023-05-23T04:56:43;102256.09;;;21.90;50.88
30302;BME280;17111;52.130;5.028;2023-05-23T04:59:09;102249.84;;;21.90;50.97
30302;BME280;17111;52.130;5.028;2023-05-23T05:01:36;102256.25;;;21.89;51.35
30302;BME280;17111;52.130;5.028;2023-05-23T05:04:06;102255.25;;;21.90;51.38
30302;BME280;17111;52.130;5.028;2023-05-23T05:06:33;102263.34;;;21.90;51.31
30302;BME280;17111;52.130;5.028;2023-05-23T05:08:59;102267.88;;;21.89;51.32
30302;BME280;17111;52.130;5.028;2023-05-23T05:11:26;102270.59;;;21.89;51.19
30302;BME280;17111;52.130;5.028;2023-05-23T05:13:53;102277.84;;;21.89;51.56
30302;BME280;17111;52.130;5.028;2023-05-23T05:16:20;102282.22;;;21.90;51.58
30302;BME280;17111;52.130;5.028;2023-05-23T05:18:47;102284.94;;;21.90;51.39
30302;BME280;17111;52.130;5.028;2023-05-23T05:21:14;102283.97;;;21.91;51.46
30302;BME280;17111;52.130;5.028;2023-05-23T05:23:40;102284.81;;;21.91;51.11
30302;BME280;17111;52.130;5.028;2023-05-23T05:26:07;102293.75;;;21.92;51.18
30302;BME280;17111;52.130;5.028;2023-05-23T05:28:34;102299.16;;;21.92;51.25
30302;BME280;17111;52.130;5.028;2023-05-23T05:31:00;102297.31;;;21.92;51.37
30302;BME280;17111;52.130;5.028;2023-05-23T05:33:30;102298.16;;;21.93;50.87
30302;BME280;17111;52.130;5.028;2023-05-23T05:36:02;102308.94;;;21.93;51.40
30302;BME280;17111;52.130;5.028;2023-05-23T05:38:29;102303.53;;;21.93;51.24
30302;BME280;17111;52.130;5.028;2023-05-23T05:40:56;102309.78;;;21.93;51.07
30302;BME280;17111;52.130;5.028;2023-05-23T05:43:22;102312.50;;;21.93;51.11
30302;BME280;17111;52.130;5.028;2023-05-23T05:45:49;102319.75;;;21.93;50.78
30302;BME280;17111;52.130;5.028;2023-05-23T05:48:16;102326.00;;;21.93;50.97
30302;BME280;17111;52.130;5.028;2023-05-23T05:50:42;102320.75;;;21.92;51.08
30302;BME280;17111;52.130;5.028;2023-05-23T05:53:12;102330.53;;;21.93;50.97
30302;BME280;17111;52.130;5.028;2023-05-23T05:55:39;102332.41;;;21.92;51.00
30302;BME280;17111;52.130;5.028;2023-05-23T05:58:06;102339.66;;;21.92;50.87
30302;BME280;17111;52.130;5.028;2023-05-23T06:00:33;102334.25;;;21.92;51.00
30302;BME280;17111;52.130;5.028;2023-05-23T06:03:07;102336.94;;;21.92;51.52
30302;BME280;17111;52.130;5.028;2023-05-23T06:05:36;102340.66;;;21.91;50.71
30302;BME280;17111;52.130;5.028;2023-05-23T06:08:02;102336.94;;;21.92;50.88
30302;BME280;17111;52.130;5.028;2023-05-23T06:10:30;102336.09;;;21.91;51.14
30302;BME280;17111;52.130;5.028;2023-05-23T06:12:57;102340.66;;;21.91;50.85
30302;BME280;17111;52.130;5.028;2023-05-23T06:15:25;102341.63;;;21.90;50.29
30302;BME280;17111;52.130;5.028;2023-05-23T06:17:51;102342.47;;;21.90;50.68
30302;BME280;17111;52.130;5.028;2023-05-23T06:20:18;102347.88;;;21.90;50.97
30302;BME280;17111;52.130;5.028;2023-05-23T06:22:45;102341.63;;;21.90;50.72
30302;BME280;17111;52.130;5.028;2023-05-23T06:25:11;102348.03;;;21.89;50.91
30302;BME280;17111;52.130;5.028;2023-05-23T06:27:40;102341.03;;;21.86;50.63
30302;BME280;17111;52.130;5.028;2023-05-23T06:30:07;102343.63;;;21.88;50.77
30302;BME280;17111;52.130;5.028;2023-05-23T06:32:33;102345.59;;;21.86;50.92
30302;BME280;17111;52.130;5.028;2023-05-23T06:35:00;102340.19;;;21.86;50.67
30302;BME280;17111;52.130;5.028;2023-05-23T06:37:27;102343.91;;;21.85;50.63
30302;BME280;17111;52.130;5.028;2023-05-23T06:39:53;102350.31;;;21.84;50.76
30302;BME280;17111;52.130;5.028;2023-05-23T06:42:20;102339.50;;;21.84;50.72
30302;BME280;17111;52.130;5.028;2023-05-23T06:44:46;102342.22;;;21.84;50.65
30302;BME280;17111;52.130;5.028;2023-05-23T06:47:13;102345.88;;;21.83;50.75
30302;BME280;17111;52.130;5.028;2023-05-23T06:49:40;102351.28;;;21.83;50.75
30302;BME280;17111;52.130;5.028;2023-05-23T06:52:06;102355.81;;;21.82;50.62
30302;BME280;17111;52.130;5.028;2023-05-23T06:54:33;102368.47;;;21.82;50.60
30302;BME280;17111;52.130;5.028;2023-05-23T06:56:59;102359.53;;;21.81;50.58
30302;BME280;17111;52.130;5.028;2023-05-23T06:59:26;102364.06;;;21.81;50.67
30302;BME280;17111;52.130;5.028;2023-05-23T07:01:53;102369.47;;;21.81;50.70
30302;BME280;17111;52.130;5.028;2023-05-23T07:04:19;102361.38;;;21.81;50.48
30302;BME280;17111;52.130;5.028;2023-05-23T07:06:46;102356.81;;;21.81;50.65
30302;BME280;17111;52.130;5.028;2023-05-23T07:09:12;102363.06;;;21.82;50.49
30302;BME280;17111;52.130;5.028;2023-05-23T07:11:39;102368.34;;;21.83;50.70
30302;BME280;17111;52.130;5.028;2023-05-23T07:14:06;102366.50;;;21.84;50.80
30302;BME280;17111;52.130;5.028;2023-05-23T07:16:33;102370.75;;;21.86;50.41
30302;BME280;17111;52.130;5.028;2023-05-23T07:19:00;102368.03;;;21.86;50.42
30302;BME280;17111;52.130;5.028;2023-05-23T07:21:28;102377.72;;;21.89;50.42
30302;BME280;17111;52.130;5.028;2023-05-23T07:23:54;102377.72;;;21.89;50.56
30302;BME280;17111;52.130;5.028;2023-05-23T07:26:21;102379.41;;;21.90;50.16
30302;BME280;17111;52.130;5.028;2023-05-23T07:28:48;102379.41;;;21.90;50.31
30302;BME280;17111;52.130;5.028;2023-05-23T07:31:15;102382.84;;;21.92;50.26
30302;BME280;17111;52.130;5.028;2023-05-23T07:33:42;102388.25;;;21.92;50.04
30302;BME280;17111;52.130;5.028;2023-05-23T07:36:10;102382.00;;;21.91;50.02
30302;BME280;17111;52.130;5.028;2023-05-23T07:38:36;102386.38;;;21.92;49.94
30302;BME280;17111;52.130;5.028;2023-05-23T07:41:03;102387.09;;;21.94;50.18
30302;BME280;17111;52.130;5.028;2023-05-23T07:43:37;102396.06;;;21.95;50.09
30302;BME280;17111;52.130;5.028;2023-05-23T07:46:04;102385.97;;;21.97;50.10
30302;BME280;17111;52.130;5.028;2023-05-23T07:48:31;102388.50;;;21.99;50.06
30302;BME280;17111;52.130;5.028;2023-05-23T07:50:57;102383.69;;;22.02;49.80
30302;BME280;17111;52.130;5.028;2023-05-23T07:53:24;102394.47;;;22.02;50.15
30302;BME280;17111;52.130;5.028;2023-05-23T07:55:51;102387.94;;;22.05;49.68
30302;BME280;17111;52.130;5.028;2023-05-23T07:58:18;102401.28;;;22.06;49.76
30302;BME280;17111;52.130;5.028;2023-05-23T08:00:44;102396.75;;;22.07;49.78
30302;BME280;17111;52.130;5.028;2023-05-23T08:03:11;102399.44;;;22.07;49.77
30302;BME280;17111;52.130;5.028;2023-05-23T08:05:38;102402.03;;;22.08;49.62
30302;BME280;17111;52.130;5.028;2023-05-23T08:08:05;102404.72;;;22.08;49.53
30302;BME280;17111;52.130;5.028;2023-05-23T08:10:32;102411.81;;;22.09;49.56
30302;BME280;17111;52.130;5.028;2023-05-23T08:12:58;102406.41;;;22.09;49.50
30302;BME280;17111;52.130;5.028;2023-05-23T08:15:26;102404.44;;;22.11;49.54
30302;BME280;17111;52.130;5.028;2023-05-23T08:17:54;102404.31;;;22.13;49.58
30302;BME280;17111;52.130;5.028;2023-05-23T08:20:23;102409.56;;;22.14;49.61
30302;BME280;17111;52.130;5.028;2023-05-23T08:23:00;102414.00;;;22.15;49.57
30302;BME280;17111;52.130;5.028;2023-05-23T08:25:27;102416.53;;;22.17;49.09
30302;BME280;17111;52.130;5.028;2023-05-23T08:27:58;102427.19;;;22.18;49.20
30302;BME280;17111;52.130;5.028;2023-05-23T08:30:26;102424.50;;;22.18;49.54
30302;BME280;17111;52.130;5.028;2023-05-23T08:32:54;102427.91;;;22.21;49.25
30302;BME280;17111;52.130;5.028;2023-05-23T08:35:21;102428.75;;;22.21;49.40
30302;BME280;17111;52.130;5.028;2023-05-23T08:37:49;102412.28;;;22.24;49.32
30302;BME280;17111;52.130;5.028;2023-05-23T08:40:20;102422.09;;;22.25;49.31
30302;BME280;17111;52.130;5.028;2023-05-23T08:42:49;102417.53;;;22.26;49.12
30302;BME280;17111;52.130;5.028;2023-05-23T08:45:16;102424.50;;;22.28;48.91
30302;BME280;17111;52.130;5.028;2023-05-23T08:47:44;102427.06;;;22.30;49.01
30302;BME280;17111;52.130;5.028;2023-05-23T08:50:14;102429.75;;;22.30;49.13
30302;BME280;17111;52.130;5.028;2023-05-23T08:53:01;102433.31;;;22.30;48.55
30302;BME280;17111;52.130;5.028;2023-05-23T08:55:31;102434.88;;;22.33;48.79
30302;BME280;17111;52.130;5.028;2023-05-23T08:57:57;102433.88;;;22.34;48.72
30302;BME280;17111;52.130;5.028;2023-05-23T09:00:29;102438.28;;;22.35;48.90
30302;BME280;17111;52.130;5.028;2023-05-23T09:02:56;102434.59;;;22.36;49.02
30302;BME280;17111;52.130;5.028;2023-05-23T09:05:23;102434.44;;;22.37;48.76
30302;BME280;17111;52.130;5.028;2023-05-23T09:07:51;102440.56;;;22.39;49.06
30302;BME280;17111;52.130;5.028;2023-05-23T09:10:18;102434.00;;;22.42;48.77
30302;BME280;17111;52.130;5.028;2023-05-23T09:12:48;102443.69;;;22.45;48.48
30302;BME280;17111;52.130;5.028;2023-05-23T09:15:15;102449.78;;;22.47;48.53
30302;BME280;17111;52.130;5.028;2023-05-23T09:17:43;102460.47;;;22.48;48.41
30302;BME280;17111;52.130;5.028;2023-05-23T09:20:13;102452.34;;;22.48;48.12
30302;BME280;17111;52.130;5.028;2023-05-23T09:22:45;102461.03;;;22.52;48.29
30302;BME280;17111;52.130;5.028;2023-05-23T09:25:13;102462.72;;;22.53;48.49
30302;BME280;17111;52.130;5.028;2023-05-23T09:27:39;102459.03;;;22.54;48.56
30302;BME280;17111;52.130;5.028;2023-05-23T09:30:09;102471.41;;;22.56;48.30
30302;BME280;17111;52.130;5.028;2023-05-23T09:32:36;102466.69;;;22.58;47.81
30302;BME280;17111;52.130;5.028;2023-05-23T09:35:04;102471.97;;;22.60;48.39
30302;BME280;17111;52.130;5.028;2023-05-23T09:37:34;102467.25;;;22.62;48.11
30302;BME280;17111;52.130;5.028;2023-05-23T09:40:08;102469.84;;;22.63;47.99
30302;BME280;17111;52.130;5.028;2023-05-23T09:42:41;102466.97;;;22.65;47.65
30302;BME280;17111;52.130;5.028;2023-05-23T09:45:10;102471.25;;;22.67;47.75
30302;BME280;17111;52.130;5.028;2023-05-23T09:47:37;102464.84;;;22.69;47.42
30302;BME280;17111;52.130;5.028;2023-05-23T09:50:04;102469.25;;;22.70;47.46
30302;BME280;17111;52.130;5.028;2023-05-23T09:52:37;102465.53;;;22.71;47.66
30302;BME280;17111;52.130;5.028;2023-05-23T09:55:04;102474.38;;;22.73;47.55
30302;BME280;17111;52.130;5.028;2023-05-23T09:57:38;102465.25;;;22.74;47.17
30302;BME280;17111;52.130;5.028;2023-05-23T10:00:06;102471.50;;;22.74;47.69
30302;BME280;17111;52.130;5.028;2023-05-23T10:05:46;102471.22;;;22.77;47.23
30302;BME280;17111;52.130;5.028;2023-05-23T10:08:34;102476.63;;;22.77;47.48
30302;BME280;17111;52.130;5.028;2023-05-23T10:11:51;102481.75;;;22.80;47.22
30302;BME280;17111;52.130;5.028;2023-05-23T10:13:52;102476.03;;;22.83;47.44
30302;BME280;17111;52.130;5.028;2023-05-23T10:17:07;102474.06;;;22.85;47.18
30302;BME280;17111;52.130;5.028;2023-05-23T10:19:43;102480.88;;;22.89;47.39
30302;BME280;17111;52.130;5.028;2023-05-23T10:22:13;102489.81;;;22.90;47.45
30302;BME280;17111;52.130;5.028;2023-05-23T10:24:41;102484.41;;;22.90;47.44
30302;BME280;17111;52.130;5.028;2023-05-23T10:27:10;102489.75;;;22.92;47.16
30302;BME280;17111;52.130;5.028;2023-05-23T10:29:37;102488.00;;;22.90;47.32
30302;BME280;17111;52.130;5.028;2023-05-23T10:32:04;102499.53;;;22.93;47.25
30302;BME280;17111;52.130;5.028;2023-05-23T10:35:07;102490.72;;;22.90;47.36
30302;BME280;17111;52.130;5.028;2023-05-23T10:40:33;102494.25;;;22.91;47.31
30302;BME280;17111;52.130;5.028;2023-05-23T10:46:07;102494.81;;;22.95;47.17
30302;BME280;17111;52.130;5.028;2023-05-23T10:48:35;102495.69;;;22.95;47.25
30302;BME280;17111;52.130;5.028;2023-05-23T10:51:07;102496.56;;;22.96;47.12
30302;BME280;17111;52.130;5.028;2023-05-23T10:53:39;102492.97;;;22.95;47.10
30302;BME280;17111;52.130;5.028;2023-05-23T10:56:07;102500.97;;;22.97;47.59
30302;BME280;17111;52.130;5.028;2023-05-23T10:58:36;102495.56;;;22.97;47.07
30302;BME280;17111;52.130;5.028;2023-05-23T11:01:12;102497.25;;;22.98;47.11
30302;BME280;17111;52.130;5.028;2023-05-23T11:06:27;102496.41;;;22.97;46.96
30302;BME280;17111;52.130;5.028;2023-05-23T11:09:06;102502.66;;;22.98;47.59
30302;BME280;17111;52.130;5.028;2023-05-23T11:17:00;102508.06;;;22.98;46.71
30302;BME280;17111;52.130;5.028;2023-05-23T11:20:04;102511.63;;;22.98;46.39
30302;BME280;17111;52.130;5.028;2023-05-23T11:22:34;102504.22;;;23.00;46.76
30302;BME280;17111;52.130;5.028;2023-05-23T11:25:08;102493.41;;;23.00;47.23
30302;BME280;17111;52.130;5.028;2023-05-23T11:27:37;102494.09;;;23.02;47.47
30302;BME280;17111;52.130;5.028;2023-05-23T11:30:10;102503.63;;;23.06;46.89
30302;BME280;17111;52.130;5.028;2023-05-23T11:32:39;102499.63;;;23.10;47.14
30302;BME280;17111;52.130;5.028;2023-05-23T11:35:10;102504.03;;;23.11;46.76
30302;BME280;17111;52.130;5.028;2023-05-23T11:37:37;102493.22;;;23.11;47.00
30302;BME280;17111;52.130;5.028;2023-05-23T11:42:50;102496.47;;;23.15;46.89
30302;BME280;17111;52.130;5.028;2023-05-23T11:45:20;102497.31;;;23.15;46.88
30302;BME280;17111;52.130;5.028;2023-05-23T11:47:47;102493.66;;;23.17;46.98
30302;BME280;17111;52.130;5.028;2023-05-23T11:50:15;102494.34;;;23.19;47.09
30302;BME280;17111;52.130;5.028;2023-05-23T11:52:42;102501.47;;;23.20;46.61
30302;BME280;17111;52.130;5.028;2023-05-23T11:55:08;102487.94;;;23.20;47.12
30302;BME280;17111;52.130;5.028;2023-05-23T11:57:38;102499.63;;;23.20;47.04
30302;BME280;17111;52.130;5.028;2023-05-23T12:00:06;102501.31;;;23.21;47.11
30302;BME280;17111;52.130;5.028;2023-05-23T12:02:40;102506.56;;;23.23;46.78
30302;BME280;17111;52.130;5.028;2023-05-23T12:05:12;102512.81;;;23.23;46.74
30302;BME280;17111;52.130;5.028;2023-05-23T12:07:47;102510.13;;;23.23;46.81
30302;BME280;17111;52.130;5.028;2023-05-23T12:10:14;102505.59;;;23.24;47.01
30302;BME280;17111;52.130;5.028;2023-05-23T12:12:43;102511.97;;;23.23;47.02
30302;BME280;17111;52.130;5.028;2023-05-23T12:15:10;102504.88;;;23.22;46.96
30302;BME280;17111;52.130;5.028;2023-05-23T12:17:38;102508.28;;;23.24;47.29
30302;BME280;17111;52.130;5.028;2023-05-23T12:20:05;102508.13;;;23.25;46.69
30302;BME280;17111;52.130;5.028;2023-05-23T12:22:33;102502.72;;;23.25;46.62
30302;BME280;17111;52.130;5.028;2023-05-23T12:25:01;102508.13;;;23.25;46.63
30302;BME280;17111;52.130;5.028;2023-05-23T12:27:29;102512.41;;;23.28;46.70
30302;BME280;17111;52.130;5.028;2023-05-23T12:30:15;102512.41;;;23.28;46.93
30302;BME280;17111;52.130;5.028;2023-05-23T12:32:43;102510.38;;;23.30;46.70
30302;BME280;17111;52.130;5.028;2023-05-23T12:35:13;102518.66;;;23.28;46.79
30302;BME280;17111;52.130;5.028;2023-05-23T12:37:43;102523.06;;;23.29;46.74
30302;BME280;17111;52.130;5.028;2023-05-23T12:40:14;102522.22;;;23.29;46.53
30302;BME280;17111;52.130;5.028;2023-05-23T12:42:55;102509.38;;;23.31;46.72
30302;BME280;17111;52.130;5.028;2023-05-23T12:45:24;102509.25;;;23.32;46.69
30302;BME280;17111;52.130;5.028;2023-05-23T12:47:56;102517.50;;;23.31;46.39
30302;BME280;17111;52.130;5.028;2023-05-23T12:50:22;102519.34;;;23.30;46.83
30302;BME280;17111;52.130;5.028;2023-05-23T12:52:49;102512.09;;;23.31;46.46
30302;BME280;17111;52.130;5.028;2023-05-23T12:55:16;102510.22;;;23.31;46.70
30302;BME280;17111;52.130;5.028;2023-05-23T12:57:43;102527.34;;;23.32;46.29
30302;BME280;17111;52.130;5.028;2023-05-23T13:00:10;102523.75;;;23.31;46.42
30302;BME280;17111;52.130;5.028;2023-05-23T13:02:37;102518.22;;;23.33;46.39
30302;BME280;17111;52.130;5.028;2023-05-23T13:05:05;102522.78;;;23.32;46.51
30302;BME280;17111;52.130;5.028;2023-05-23T13:07:32;102521.94;;;23.32;46.44
30302;BME280;17111;52.130;5.028;2023-05-23T13:10:00;102523.63;;;23.33;46.07
30302;BME280;17111;52.130;5.028;2023-05-23T13:12:28;102511.97;;;23.32;46.19
30302;BME280;17111;52.130;5.028;2023-05-23T13:14:55;102521.94;;;23.32;46.57
30302;BME280;17111;52.130;5.028;2023-05-23T13:17:23;102524.63;;;23.32;46.37
30302;BME280;17111;52.130;5.028;2023-05-23T13:19:50;102520.91;;;23.33;46.51
30302;BME280;17111;52.130;5.028;2023-05-23T13:22:17;102522.78;;;23.32;46.65